Terminal Aerodrome Forecast
Issued by NWS Louisville, KY

Home | Current Version | Previous Version | Text Only | Print | Product List | Glossary On
Versions: 1 2 3 4 5 6 7 8 9 10 11 12 13 14 15 16 17
975
FTUS43 KLMK 301728
TAFLEX
TAF
KLEX 301728Z 3018/3118 17015G25KT P6SM SCT050 BKN200
     FM310000 17015KT P6SM -SHRA VCTS BKN035CB
     FM310200 22012KT P6SM -TSRA BKN035CB
      TEMPO 3104/3107 4SM -TSRA BKN025CB
     FM310700 23008KT 6SM -RA BR BKN022
     FM311200 23010KT 5SM BR BKN015=

USA.gov is the U.S. government's official web portal to all federal, state and local government web resources and services.